sensor_id;sensor_type;location;lat;lon;timestamp;temperature;humidity
4908;DHT22;64375;51.540;7.364;2022-10-17T00:00:21;18.90;97.70
4908;DHT22;64375;51.540;7.364;2022-10-17T00:02:51;18.90;97.80
4908;DHT22;64375;51.540;7.364;2022-10-17T00:05:21;18.90;98.10
4908;DHT22;64375;51.540;7.364;2022-10-17T00:07:49;18.90;98.00
4908;DHT22;64375;51.540;7.364;2022-10-17T00:10:17;18.80;97.80
4908;DHT22;64375;51.540;7.364;2022-10-17T00:12:45;18.80;97.80
4908;DHT22;64375;51.540;7.364;2022-10-17T00:15:15;18.70;97.70
4908;DHT22;64375;51.540;7.364;2022-10-17T00:17:43;18.70;97.70
4908;DHT22;64375;51.540;7.364;2022-10-17T00:20:13;18.70;97.90
4908;DHT22;64375;51.540;7.364;2022-10-17T00:22:41;18.70;98.10
4908;DHT22;64375;51.540;7.364;2022-10-17T00:25:09;18.70;98.10
4908;DHT22;64375;51.540;7.364;2022-10-17T00:27:38;18.70;98.10
4908;DHT22;64375;51.540;7.364;2022-10-17T00:30:10;18.70;98.20
4908;DHT22;64375;51.540;7.364;2022-10-17T00:32:38;18.80;98.10
4908;DHT22;64375;51.540;7.364;2022-10-17T00:35:07;18.70;98.10
4908;DHT22;64375;51.540;7.364;2022-10-17T00:37:36;18.70;98.10
4908;DHT22;64375;51.540;7.364;2022-10-17T00:40:06;18.70;98.10
4908;DHT22;64375;51.540;7.364;2022-10-17T00:42:34;18.80;98.20
4908;DHT22;64375;51.540;7.364;2022-10-17T00:45:16;18.80;98.20
4908;DHT22;64375;51.540;7.364;2022-10-17T00:47:47;18.90;98.20
4908;DHT22;64375;51.540;7.364;2022-10-17T00:50:16;18.90;97.90
4908;DHT22;64375;51.540;7.364;2022-10-17T00:52:47;18.90;97.90
4908;DHT22;64375;51.540;7.364;2022-10-17T00:55:17;18.90;97.90
4908;DHT22;64375;51.540;7.364;2022-10-17T00:57:47;18.90;97.90
4908;DHT22;64375;51.540;7.364;2022-10-17T01:00:17;18.90;97.80
4908;DHT22;64375;51.540;7.364;2022-10-17T01:02:45;18.80;97.70
4908;DHT22;64375;51.540;7.364;2022-10-17T01:05:14;18.80;97.80
4908;DHT22;64375;51.540;7.364;2022-10-17T01:07:43;18.70;97.90
4908;DHT22;64375;51.540;7.364;2022-10-17T01:10:14;18.60;97.60
4908;DHT22;64375;51.540;7.364;2022-10-17T01:12:51;18.60;97.80
4908;DHT22;64375;51.540;7.364;2022-10-17T01:15:30;18.40;97.00
4908;DHT22;64375;51.540;7.364;2022-10-17T01:18:09;18.30;97.50
4908;DHT22;64375;51.540;7.364;2022-10-17T01:21:07;18.40;98.10
4908;DHT22;64375;51.540;7.364;2022-10-17T01:24:19;18.40;98.10
4908;DHT22;64375;51.540;7.364;2022-10-17T01:27:05;18.40;98.20
4908;DHT22;64375;51.540;7.364;2022-10-17T01:29:50;18.40;98.30
4908;DHT22;64375;51.540;7.364;2022-10-17T01:32:23;18.50;98.30
4908;DHT22;64375;51.540;7.364;2022-10-17T01:34:58;18.50;98.20
4908;DHT22;64375;51.540;7.364;2022-10-17T01:37:31;18.50;98.10
4908;DHT22;64375;51.540;7.364;2022-10-17T01:40:04;18.50;98.20
4908;DHT22;64375;51.540;7.364;2022-10-17T01:42:37;18.50;98.20
4908;DHT22;64375;51.540;7.364;2022-10-17T01:45:11;18.40;97.70
4908;DHT22;64375;51.540;7.364;2022-10-17T01:47:42;18.40;98.00
4908;DHT22;64375;51.540;7.364;2022-10-17T01:50:15;18.40;98.00
4908;DHT22;64375;51.540;7.364;2022-10-17T01:52:49;18.20;97.10
4908;DHT22;64375;51.540;7.364;2022-10-17T01:55:21;18.10;97.10
4908;DHT22;64375;51.540;7.364;2022-10-17T01:57:54;18.00;97.20
4908;DHT22;64375;51.540;7.364;2022-10-17T02:00:23;17.80;97.30
4908;DHT22;64375;51.540;7.364;2022-10-17T02:02:57;17.80;97.50
4908;DHT22;64375;51.540;7.364;2022-10-17T02:05:30;17.60;97.80
4908;DHT22;64375;51.540;7.364;2022-10-17T02:07:59;17.40;98.00
4908;DHT22;64375;51.540;7.364;2022-10-17T02:10:35;17.20;98.80
4908;DHT22;64375;51.540;7.364;2022-10-17T02:13:08;17.10;99.10
4908;DHT22;64375;51.540;7.364;2022-10-17T02:15:58;17.20;99.30
4908;DHT22;64375;51.540;7.364;2022-10-17T02:18:46;17.00;99.60
4908;DHT22;64375;51.540;7.364;2022-10-17T02:21:19;16.80;99.90
4908;DHT22;64375;51.540;7.364;2022-10-17T02:23:54;16.70;99.90
4908;DHT22;64375;51.540;7.364;2022-10-17T02:26:27;16.80;99.90
4908;DHT22;64375;51.540;7.364;2022-10-17T02:29:03;16.80;99.90
4908;DHT22;64375;51.540;7.364;2022-10-17T02:31:35;16.60;99.90
4908;DHT22;64375;51.540;7.364;2022-10-17T02:34:08;16.70;99.90
4908;DHT22;64375;51.540;7.364;2022-10-17T02:36:42;16.80;99.90
4908;DHT22;64375;51.540;7.364;2022-10-17T02:39:12;16.80;99.90
4908;DHT22;64375;51.540;7.364;2022-10-17T02:41:42;16.90;99.90
4908;DHT22;64375;51.540;7.364;2022-10-17T02:44:11;17.00;99.90
4908;DHT22;64375;51.540;7.364;2022-10-17T02:46:40;17.10;99.90
4908;DHT22;64375;51.540;7.364;2022-10-17T02:49:16;17.20;99.90
4908;DHT22;64375;51.540;7.364;2022-10-17T02:51:51;17.40;99.90
4908;DHT22;64375;51.540;7.364;2022-10-17T02:54:23;17.50;99.90
4908;DHT22;64375;51.540;7.364;2022-10-17T02:57:00;17.70;99.90
4908;DHT22;64375;51.540;7.364;2022-10-17T02:59:29;17.80;99.90
4908;DHT22;64375;51.540;7.364;2022-10-17T03:02:05;17.90;99.60
4908;DHT22;64375;51.540;7.364;2022-10-17T03:04:34;17.90;99.70
4908;DHT22;64375;51.540;7.364;2022-10-17T03:07:02;18.00;99.50
4908;DHT22;64375;51.540;7.364;2022-10-17T03:09:30;18.00;99.30
4908;DHT22;64375;51.540;7.364;2022-10-17T03:11:58;18.10;99.30
4908;DHT22;64375;51.540;7.364;2022-10-17T03:14:26;18.10;99.20
4908;DHT22;64375;51.540;7.364;2022-10-17T03:16:54;18.20;99.20
4908;DHT22;64375;51.540;7.364;2022-10-17T03:19:22;18.20;99.20
4908;DHT22;64375;51.540;7.364;2022-10-17T03:21:51;18.30;99.20
4908;DHT22;64375;51.540;7.364;2022-10-17T03:24:19;18.50;98.90
4908;DHT22;64375;51.540;7.364;2022-10-17T03:26:47;18.50;98.70
4908;DHT22;64375;51.540;7.364;2022-10-17T03:29:14;18.60;98.60
4908;DHT22;64375;51.540;7.364;2022-10-17T03:31:42;18.70;98.50
4908;DHT22;64375;51.540;7.364;2022-10-17T03:34:10;18.70;98.50
4908;DHT22;64375;51.540;7.364;2022-10-17T03:36:38;18.70;98.50
4908;DHT22;64375;51.540;7.364;2022-10-17T03:39:07;18.90;98.30
4908;DHT22;64375;51.540;7.364;2022-10-17T03:41:35;18.90;98.10
4908;DHT22;64375;51.540;7.364;2022-10-17T03:44:03;18.80;98.30
4908;DHT22;64375;51.540;7.364;2022-10-17T03:46:31;18.90;98.10
4908;DHT22;64375;51.540;7.364;2022-10-17T03:48:59;18.90;98.20
4908;DHT22;64375;51.540;7.364;2022-10-17T03:51:27;19.00;98.20
4908;DHT22;64375;51.540;7.364;2022-10-17T03:53:55;19.00;98.00
4908;DHT22;64375;51.540;7.364;2022-10-17T03:56:25;18.90;97.90
4908;DHT22;64375;51.540;7.364;2022-10-17T03:58:53;19.00;98.00
4908;DHT22;64375;51.540;7.364;2022-10-17T04:01:22;19.00;98.10
4908;DHT22;64375;51.540;7.364;2022-10-17T04:03:51;19.00;98.30
4908;DHT22;64375;51.540;7.364;2022-10-17T04:06:19;18.90;98.10
4908;DHT22;64375;51.540;7.364;2022-10-17T04:08:48;18.90;98.40
4908;DHT22;64375;51.540;7.364;2022-10-17T04:11:18;18.90;98.20
4908;DHT22;64375;51.540;7.364;2022-10-17T04:13:51;18.80;98.00
4908;DHT22;64375;51.540;7.364;2022-10-17T04:16:20;18.70;98.40
4908;DHT22;64375;51.540;7.364;2022-10-17T04:18:52;18.80;98.20
4908;DHT22;64375;51.540;7.364;2022-10-17T04:21:21;18.90;98.20
4908;DHT22;64375;51.540;7.364;2022-10-17T04:23:52;18.90;98.60
4908;DHT22;64375;51.540;7.364;2022-10-17T04:26:20;18.80;98.70
4908;DHT22;64375;51.540;7.364;2022-10-17T04:28:50;18.80;98.70
4908;DHT22;64375;51.540;7.364;2022-10-17T04:31:19;18.80;98.90
4908;DHT22;64375;51.540;7.364;2022-10-17T04:33:47;18.80;98.90
4908;DHT22;64375;51.540;7.364;2022-10-17T04:36:17;18.90;98.80
4908;DHT22;64375;51.540;7.364;2022-10-17T04:38:45;18.80;98.80
4908;DHT22;64375;51.540;7.364;2022-10-17T04:41:16;18.80;98.80
4908;DHT22;64375;51.540;7.364;2022-10-17T04:43:44;18.90;98.70
4908;DHT22;64375;51.540;7.364;2022-10-17T04:46:18;18.90;98.60
4908;DHT22;64375;51.540;7.364;2022-10-17T04:48:46;19.00;98.60
4908;DHT22;64375;51.540;7.364;2022-10-17T04:51:16;19.10;98.40
4908;DHT22;64375;51.540;7.364;2022-10-17T04:53:50;19.30;98.20
4908;DHT22;64375;51.540;7.364;2022-10-17T04:56:19;19.40;98.00
4908;DHT22;64375;51.540;7.364;2022-10-17T04:58:48;19.40;97.80
4908;DHT22;64375;51.540;7.364;2022-10-17T05:01:19;19.30;97.90
4908;DHT22;64375;51.540;7.364;2022-10-17T05:03:47;19.20;98.20
4908;DHT22;64375;51.540;7.364;2022-10-17T05:06:17;19.10;98.20
4908;DHT22;64375;51.540;7.364;2022-10-17T05:08:46;19.10;98.20
4908;DHT22;64375;51.540;7.364;2022-10-17T05:11:15;19.10;98.50
4908;DHT22;64375;51.540;7.364;2022-10-17T05:13:44;19.10;98.30
4908;DHT22;64375;51.540;7.364;2022-10-17T05:16:15;19.20;98.40
4908;DHT22;64375;51.540;7.364;2022-10-17T05:18:47;19.20;98.60
4908;DHT22;64375;51.540;7.364;2022-10-17T05:21:19;19.20;98.80
4908;DHT22;64375;51.540;7.364;2022-10-17T05:23:47;19.00;99.40
4908;DHT22;64375;51.540;7.364;2022-10-17T05:26:16;19.00;99.30
4908;DHT22;64375;51.540;7.364;2022-10-17T05:28:44;19.10;99.30
4908;DHT22;64375;51.540;7.364;2022-10-17T05:31:13;19.10;99.10
4908;DHT22;64375;51.540;7.364;2022-10-17T05:33:41;19.10;99.40
4908;DHT22;64375;51.540;7.364;2022-10-17T05:36:10;19.20;99.00
4908;DHT22;64375;51.540;7.364;2022-10-17T05:38:38;19.30;98.80
4908;DHT22;64375;51.540;7.364;2022-10-17T05:41:06;19.40;98.60
4908;DHT22;64375;51.540;7.364;2022-10-17T05:43:34;19.50;98.40
4908;DHT22;64375;51.540;7.364;2022-10-17T05:46:03;19.50;98.30
4908;DHT22;64375;51.540;7.364;2022-10-17T05:48:31;19.60;98.30
4908;DHT22;64375;51.540;7.364;2022-10-17T05:51:01;19.60;98.70
4908;DHT22;64375;51.540;7.364;2022-10-17T05:53:31;19.40;99.20
4908;DHT22;64375;51.540;7.364;2022-10-17T05:56:01;19.40;99.10
4908;DHT22;64375;51.540;7.364;2022-10-17T05:58:30;19.40;99.00
4908;DHT22;64375;51.540;7.364;2022-10-17T06:01:16;19.40;99.00
4908;DHT22;64375;51.540;7.364;2022-10-17T06:03:44;19.50;98.80
4908;DHT22;64375;51.540;7.364;2022-10-17T06:06:13;19.60;98.60
4908;DHT22;64375;51.540;7.364;2022-10-17T06:08:42;19.70;98.50
4908;DHT22;64375;51.540;7.364;2022-10-17T06:11:11;19.60;98.60
4908;DHT22;64375;51.540;7.364;2022-10-17T06:13:40;19.60;98.40
4908;DHT22;64375;51.540;7.364;2022-10-17T06:16:08;19.50;98.70
4908;DHT22;64375;51.540;7.364;2022-10-17T06:18:35;19.30;98.90
4908;DHT22;64375;51.540;7.364;2022-10-17T06:21:05;19.20;98.90
4908;DHT22;64375;51.540;7.364;2022-10-17T06:23:33;19.20;99.20
4908;DHT22;64375;51.540;7.364;2022-10-17T06:26:04;19.10;99.50
4908;DHT22;64375;51.540;7.364;2022-10-17T06:28:33;19.10;99.20
4908;DHT22;64375;51.540;7.364;2022-10-17T06:31:03;19.10;99.10
4908;DHT22;64375;51.540;7.364;2022-10-17T06:33:31;19.00;99.40
4908;DHT22;64375;51.540;7.364;2022-10-17T06:36:00;18.90;99.70
4908;DHT22;64375;51.540;7.364;2022-10-17T06:38:28;19.00;99.30
4908;DHT22;64375;51.540;7.364;2022-10-17T06:41:03;19.00;99.50
4908;DHT22;64375;51.540;7.364;2022-10-17T06:43:34;19.00;99.30
4908;DHT22;64375;51.540;7.364;2022-10-17T06:46:02;19.10;99.70
4908;DHT22;64375;51.540;7.364;2022-10-17T06:48:30;19.20;99.70
4908;DHT22;64375;51.540;7.364;2022-10-17T06:50:59;19.20;99.70
4908;DHT22;64375;51.540;7.364;2022-10-17T06:53:27;19.20;99.70
4908;DHT22;64375;51.540;7.364;2022-10-17T06:55:55;19.20;99.60
4908;DHT22;64375;51.540;7.364;2022-10-17T06:58:28;19.10;99.50
4908;DHT22;64375;51.540;7.364;2022-10-17T07:01:00;19.10;99.90
4908;DHT22;64375;51.540;7.364;2022-10-17T07:03:29;19.00;99.90
4908;DHT22;64375;51.540;7.364;2022-10-17T07:05:57;18.90;99.90
4908;DHT22;64375;51.540;7.364;2022-10-17T07:08:25;18.80;99.90
4908;DHT22;64375;51.540;7.364;2022-10-17T07:10:54;18.80;99.90
4908;DHT22;64375;51.540;7.364;2022-10-17T07:13:22;18.60;99.90
4908;DHT22;64375;51.540;7.364;2022-10-17T07:15:52;18.40;99.90
4908;DHT22;64375;51.540;7.364;2022-10-17T07:18:23;18.30;99.90
4908;DHT22;64375;51.540;7.364;2022-10-17T07:20:52;18.30;99.90
4908;DHT22;64375;51.540;7.364;2022-10-17T07:23:20;18.30;99.90
4908;DHT22;64375;51.540;7.364;2022-10-17T07:25:48;18.30;99.90
4908;DHT22;64375;51.540;7.364;2022-10-17T07:28:16;18.40;99.90
4908;DHT22;64375;51.540;7.364;2022-10-17T07:30:44;18.50;99.90
4908;DHT22;64375;51.540;7.364;2022-10-17T07:33:20;18.60;99.90
4908;DHT22;64375;51.540;7.364;2022-10-17T07:35:48;18.70;99.90
4908;DHT22;64375;51.540;7.364;2022-10-17T07:38:18;18.80;99.90
4908;DHT22;64375;51.540;7.364;2022-10-17T07:40:53;18.90;99.90
4908;DHT22;64375;51.540;7.364;2022-10-17T07:43:21;19.00;99.90
4908;DHT22;64375;51.540;7.364;2022-10-17T07:45:49;19.20;99.90
4908;DHT22;64375;51.540;7.364;2022-10-17T07:48:18;19.30;99.90
4908;DHT22;64375;51.540;7.364;2022-10-17T07:50:47;19.50;99.90
4908;DHT22;64375;51.540;7.364;2022-10-17T07:53:16;19.60;99.60
4908;DHT22;64375;51.540;7.364;2022-10-17T07:55:43;19.60;99.50
4908;DHT22;64375;51.540;7.364;2022-10-17T07:58:13;19.70;99.20
4908;DHT22;64375;51.540;7.364;2022-10-17T08:00:41;19.70;99.00
4908;DHT22;64375;51.540;7.364;2022-10-17T08:03:10;19.80;98.90
4908;DHT22;64375;51.540;7.364;2022-10-17T08:05:37;19.80;98.90
4908;DHT22;64375;51.540;7.364;2022-10-17T08:08:07;19.90;98.80
4908;DHT22;64375;51.540;7.364;2022-10-17T08:10:35;19.90;98.60
4908;DHT22;64375;51.540;7.364;2022-10-17T08:13:03;19.90;98.60
4908;DHT22;64375;51.540;7.364;2022-10-17T08:15:31;19.90;98.60
4908;DHT22;64375;51.540;7.364;2022-10-17T08:17:59;19.90;98.50
4908;DHT22;64375;51.540;7.364;2022-10-17T08:20:27;20.00;98.80
4908;DHT22;64375;51.540;7.364;2022-10-17T08:22:55;19.90;99.30
4908;DHT22;64375;51.540;7.364;2022-10-17T08:25:24;19.90;98.60
4908;DHT22;64375;51.540;7.364;2022-10-17T08:27:52;19.80;99.00
4908;DHT22;64375;51.540;7.364;2022-10-17T08:30:20;19.70;99.00
4908;DHT22;64375;51.540;7.364;2022-10-17T08:32:48;19.70;98.70
4908;DHT22;64375;51.540;7.364;2022-10-17T08:35:16;19.80;98.80
4908;DHT22;64375;51.540;7.364;2022-10-17T08:37:44;19.80;99.20
4908;DHT22;64375;51.540;7.364;2022-10-17T08:40:18;19.80;99.10
4908;DHT22;64375;51.540;7.364;2022-10-17T08:43:05;19.90;98.60
4908;DHT22;64375;51.540;7.364;2022-10-17T08:45:43;19.80;98.70
4908;DHT22;64375;51.540;7.364;2022-10-17T08:48:15;19.90;98.40
4908;DHT22;64375;51.540;7.364;2022-10-17T08:50:47;20.10;98.30
4908;DHT22;64375;51.540;7.364;2022-10-17T08:53:19;20.20;98.10
4908;DHT22;64375;51.540;7.364;2022-10-17T08:55:49;20.20;98.40
4908;DHT22;64375;51.540;7.364;2022-10-17T08:58:21;20.10;98.80
4908;DHT22;64375;51.540;7.364;2022-10-17T09:00:56;20.30;98.70
4908;DHT22;64375;51.540;7.364;2022-10-17T09:03:44;20.30;98.50
4908;DHT22;64375;51.540;7.364;2022-10-17T09:06:20;20.40;98.40
4908;DHT22;64375;51.540;7.364;2022-10-17T09:09:02;20.50;98.20
4908;DHT22;64375;51.540;7.364;2022-10-17T09:11:47;20.50;98.10
4908;DHT22;64375;51.540;7.364;2022-10-17T09:14:33;20.60;98.10
4908;DHT22;64375;51.540;7.364;2022-10-17T09:17:14;20.50;98.40
4908;DHT22;64375;51.540;7.364;2022-10-17T09:19:53;20.50;98.10
4908;DHT22;64375;51.540;7.364;2022-10-17T09:22:27;20.60;98.40
4908;DHT22;64375;51.540;7.364;2022-10-17T09:24:58;20.70;97.90
4908;DHT22;64375;51.540;7.364;2022-10-17T09:27:34;20.80;97.80
4908;DHT22;64375;51.540;7.364;2022-10-17T09:30:21;20.90;97.60
4908;DHT22;64375;51.540;7.364;2022-10-17T09:33:11;21.00;97.50
4908;DHT22;64375;51.540;7.364;2022-10-17T09:35:59;21.00;97.50
4908;DHT22;64375;51.540;7.364;2022-10-17T09:38:35;21.00;97.80
4908;DHT22;64375;51.540;7.364;2022-10-17T09:41:10;21.00;97.50
4908;DHT22;64375;51.540;7.364;2022-10-17T09:44:13;21.00;97.80
4908;DHT22;64375;51.540;7.364;2022-10-17T09:46:58;21.10;97.50
4908;DHT22;64375;51.540;7.364;2022-10-17T09:49:31;21.10;97.50
4908;DHT22;64375;51.540;7.364;2022-10-17T09:52:00;21.10;97.30
4908;DHT22;64375;51.540;7.364;2022-10-17T09:54:36;21.20;98.00
4908;DHT22;64375;51.540;7.364;2022-10-17T09:57:08;21.10;98.50
4908;DHT22;64375;51.540;7.364;2022-10-17T09:59:38;21.10;98.70
4908;DHT22;64375;51.540;7.364;2022-10-17T10:02:12;21.10;99.10
4908;DHT22;64375;51.540;7.364;2022-10-17T10:04:56;21.10;99.00
4908;DHT22;64375;51.540;7.364;2022-10-17T10:07:35;21.10;99.20
4908;DHT22;64375;51.540;7.364;2022-10-17T10:10:06;21.00;99.20
4908;DHT22;64375;51.540;7.364;2022-10-17T10:12:35;21.00;99.30
4908;DHT22;64375;51.540;7.364;2022-10-17T10:15:31;21.00;99.40
4908;DHT22;64375;51.540;7.364;2022-10-17T10:18:00;20.90;99.40
4908;DHT22;64375;51.540;7.364;2022-10-17T10:20:32;20.90;99.40
4908;DHT22;64375;51.540;7.364;2022-10-17T10:23:11;21.00;99.60
4908;DHT22;64375;51.540;7.364;2022-10-17T10:25:55;21.00;99.70
4908;DHT22;64375;51.540;7.364;2022-10-17T10:28:28;21.00;99.80
4908;DHT22;64375;51.540;7.364;2022-10-17T10:30:59;21.00;99.80
4908;DHT22;64375;51.540;7.364;2022-10-17T10:33:34;21.00;99.80
4908;DHT22;64375;51.540;7.364;2022-10-17T10:36:07;21.00;99.90
4908;DHT22;64375;51.540;7.364;2022-10-17T10:38:39;21.00;99.90
4908;DHT22;64375;51.540;7.364;2022-10-17T10:41:09;21.00;99.90
4908;DHT22;64375;51.540;7.364;2022-10-17T10:43:42;21.00;99.90
4908;DHT22;64375;51.540;7.364;2022-10-17T10:46:17;21.00;99.90
4908;DHT22;64375;51.540;7.364;2022-10-17T10:48:52;21.00;99.90
4908;DHT22;64375;51.540;7.364;2022-10-17T10:51:23;21.00;99.90
4908;DHT22;64375;51.540;7.364;2022-10-17T10:54:01;21.00;99.90
4908;DHT22;64375;51.540;7.364;2022-10-17T10:56:35;21.00;99.90
4908;DHT22;64375;51.540;7.364;2022-10-17T10:59:08;21.00;99.90
4908;DHT22;64375;51.540;7.364;2022-10-17T11:01:41;21.00;99.90
4908;DHT22;64375;51.540;7.364;2022-10-17T11:04:22;21.10;99.90
4908;DHT22;64375;51.540;7.364;2022-10-17T11:06:56;21.10;99.80
4908;DHT22;64375;51.540;7.364;2022-10-17T11:09:37;21.10;99.80
4908;DHT22;64375;51.540;7.364;2022-10-17T11:12:13;21.10;99.70
4908;DHT22;64375;51.540;7.364;2022-10-17T11:14:45;21.10;99.70
4908;DHT22;64375;51.540;7.364;2022-10-17T11:17:23;21.20;99.90
4908;DHT22;64375;51.540;7.364;2022-10-17T11:20:02;21.20;99.90
4908;DHT22;64375;51.540;7.364;2022-10-17T11:22:34;21.20;99.90
4908;DHT22;64375;51.540;7.364;2022-10-17T11:25:13;21.20;99.90
4908;DHT22;64375;51.540;7.364;2022-10-17T11:27:43;21.20;99.90
4908;DHT22;64375;51.540;7.364;2022-10-17T11:30:13;21.20;99.90
4908;DHT22;64375;51.540;7.364;2022-10-17T11:32:44;21.20;99.90
4908;DHT22;64375;51.540;7.364;2022-10-17T11:35:18;21.30;99.90
4908;DHT22;64375;51.540;7.364;2022-10-17T11:37:52;21.30;99.90
4908;DHT22;64375;51.540;7.364;2022-10-17T11:40:28;21.30;99.90
4908;DHT22;64375;51.540;7.364;2022-10-17T11:42:59;21.30;99.90
4908;DHT22;64375;51.540;7.364;2022-10-17T11:45:32;21.20;99.90
4908;DHT22;64375;51.540;7.364;2022-10-17T11:48:03;21.30;99.90
4908;DHT22;64375;51.540;7.364;2022-10-17T11:50:36;21.30;99.90
4908;DHT22;64375;51.540;7.364;2022-10-17T11:53:28;21.30;99.90
4908;DHT22;64375;51.540;7.364;2022-10-17T11:55:59;21.30;99.90
4908;DHT22;64375;51.540;7.364;2022-10-17T11:58:34;21.30;99.90
4908;DHT22;64375;51.540;7.364;2022-10-17T12:01:13;21.30;99.90
4908;DHT22;64375;51.540;7.364;2022-10-17T12:03:57;21.30;99.90
4908;DHT22;64375;51.540;7.364;2022-10-17T12:06:42;21.20;99.90
4908;DHT22;64375;51.540;7.364;2022-10-17T12:09:21;21.30;99.90
4908;DHT22;64375;51.540;7.364;2022-10-17T12:11:52;21.30;99.90
4908;DHT22;64375;51.540;7.364;2022-10-17T12:14:39;21.40;99.90
4908;DHT22;64375;51.540;7.364;2022-10-17T12:17:38;21.30;99.90
4908;DHT22;64375;51.540;7.364;2022-10-17T12:20:26;21.40;99.90
4908;DHT22;64375;51.540;7.364;2022-10-17T12:23:03;21.40;99.90
4908;DHT22;64375;51.540;7.364;2022-10-17T12:25:33;21.40;99.90
4908;DHT22;64375;51.540;7.364;2022-10-17T12:28:11;21.40;99.90
4908;DHT22;64375;51.540;7.364;2022-10-17T12:30:52;21.40;99.90
4908;DHT22;64375;51.540;7.364;2022-10-17T12:33:23;21.30;99.90
4908;DHT22;64375;51.540;7.364;2022-10-17T12:42:45;21.40;99.90
4908;DHT22;64375;51.540;7.364;2022-10-17T12:45:49;21.50;99.90
4908;DHT22;64375;51.540;7.364;2022-10-17T12:48:59;21.50;99.90
4908;DHT22;64375;51.540;7.364;2022-10-17T12:51:27;21.60;99.90
4908;DHT22;64375;51.540;7.364;2022-10-17T12:54:09;21.60;99.90
4908;DHT22;64375;51.540;7.364;2022-10-17T12:56:39;21.70;99.90
4908;DHT22;64375;51.540;7.364;2022-10-17T12:59:15;21.70;99.90
4908;DHT22;64375;51.540;7.364;2022-10-17T13:01:47;21.70;99.90
4908;DHT22;64375;51.540;7.364;2022-10-17T13:04:17;21.70;99.90
4908;DHT22;64375;51.540;7.364;2022-10-17T13:06:46;21.80;99.90
4908;DHT22;64375;51.540;7.364;2022-10-17T13:09:21;21.80;99.90
4908;DHT22;64375;51.540;7.364;2022-10-17T13:11:50;21.80;99.90
4908;DHT22;64375;51.540;7.364;2022-10-17T13:14:21;21.80;99.90
4908;DHT22;64375;51.540;7.364;2022-10-17T13:16:51;21.80;99.90
4908;DHT22;64375;51.540;7.364;2022-10-17T13:19:22;21.80;99.90
4908;DHT22;64375;51.540;7.364;2022-10-17T13:21:52;21.80;99.90
4908;DHT22;64375;51.540;7.364;2022-10-17T13:24:25;21.80;99.90
4908;DHT22;64375;51.540;7.364;2022-10-17T13:26:54;21.80;99.90
4908;DHT22;64375;51.540;7.364;2022-10-17T13:29:24;21.80;99.90
4908;DHT22;64375;51.540;7.364;2022-10-17T13:31:55;21.80;99.90
4908;DHT22;64375;51.540;7.364;2022-10-17T13:34:25;21.80;99.90
4908;DHT22;64375;51.540;7.364;2022-10-17T13:36:55;21.80;99.90
4908;DHT22;64375;51.540;7.364;2022-10-17T13:39:25;21.80;99.90
4908;DHT22;64375;51.540;7.364;2022-10-17T13:42:19;21.90;99.90
4908;DHT22;64375;51.540;7.364;2022-10-17T13:44:49;21.80;99.90
4908;DHT22;64375;51.540;7.364;2022-10-17T13:47:22;21.80;99.90
4908;DHT22;64375;51.540;7.364;2022-10-17T13:49:51;21.80;99.90
4908;DHT22;64375;51.540;7.364;2022-10-17T13:52:23;21.80;99.90
4908;DHT22;64375;51.540;7.364;2022-10-17T13:54:54;21.80;99.90
4908;DHT22;64375;51.540;7.364;2022-10-17T13:57:23;21.80;99.90
4908;DHT22;64375;51.540;7.364;2022-10-17T13:59:54;21.80;99.90
4908;DHT22;64375;51.540;7.364;2022-10-17T14:02:25;21.80;99.90
4908;DHT22;64375;51.540;7.364;2022-10-17T14:05:01;21.70;99.90
4908;DHT22;64375;51.540;7.364;2022-10-17T14:07:45;21.80;99.90
4908;DHT22;64375;51.540;7.364;2022-10-17T14:10:38;21.80;99.90
4908;DHT22;64375;51.540;7.364;2022-10-17T14:13:17;21.80;99.90
4908;DHT22;64375;51.540;7.364;2022-10-17T14:15:47;21.90;99.90
4908;DHT22;64375;51.540;7.364;2022-10-17T14:18:18;21.80;99.90
4908;DHT22;64375;51.540;7.364;2022-10-17T14:20:48;21.80;99.90
4908;DHT22;64375;51.540;7.364;2022-10-17T14:23:38;21.80;99.90
4908;DHT22;64375;51.540;7.364;2022-10-17T14:26:10;21.80;99.90
4908;DHT22;64375;51.540;7.364;2022-10-17T14:28:40;21.80;99.90
4908;DHT22;64375;51.540;7.364;2022-10-17T14:31:20;21.80;99.90
4908;DHT22;64375;51.540;7.364;2022-10-17T14:33:51;21.80;99.90
4908;DHT22;64375;51.540;7.364;2022-10-17T14:36:28;21.80;99.90
4908;DHT22;64375;51.540;7.364;2022-10-17T14:38:57;21.70;99.90
4908;DHT22;64375;51.540;7.364;2022-10-17T14:41:27;21.80;99.90
4908;DHT22;64375;51.540;7.364;2022-10-17T14:44:17;21.80;99.90
4908;DHT22;64375;51.540;7.364;2022-10-17T14:46:50;21.70;99.90
4908;DHT22;64375;51.540;7.364;2022-10-17T14:49:24;21.70;99.90
4908;DHT22;64375;51.540;7.364;2022-10-17T14:52:27;21.70;99.90
4908;DHT22;64375;51.540;7.364;2022-10-17T14:54:56;21.70;99.90
4908;DHT22;64375;51.540;7.364;2022-10-17T14:57:28;21.70;99.90
4908;DHT22;64375;51.540;7.364;2022-10-17T14:59:56;21.70;99.90
4908;DHT22;64375;51.540;7.364;2022-10-17T15:02:26;21.70;99.90
4908;DHT22;64375;51.540;7.364;2022-10-17T15:04:56;21.70;99.90
4908;DHT22;64375;51.540;7.364;2022-10-17T15:07:24;21.70;99.90
4908;DHT22;64375;51.540;7.364;2022-10-17T15:09:52;21.70;99.90
4908;DHT22;64375;51.540;7.364;2022-10-17T15:12:22;21.60;99.90
4908;DHT22;64375;51.540;7.364;2022-10-17T15:14:51;21.50;99.90
4908;DHT22;64375;51.540;7.364;2022-10-17T15:17:22;21.50;99.90
4908;DHT22;64375;51.540;7.364;2022-10-17T15:19:51;21.40;99.90
4908;DHT22;64375;51.540;7.364;2022-10-17T15:22:20;21.40;99.90
4908;DHT22;64375;51.540;7.364;2022-10-17T15:24:48;21.40;99.90
4908;DHT22;64375;51.540;7.364;2022-10-17T15:27:17;21.40;99.90
4908;DHT22;64375;51.540;7.364;2022-10-17T15:29:45;21.40;99.90
4908;DHT22;64375;51.540;7.364;2022-10-17T15:32:13;21.50;99.90
4908;DHT22;64375;51.540;7.364;2022-10-17T15:34:41;21.40;99.90
4908;DHT22;64375;51.540;7.364;2022-10-17T15:37:17;21.50;99.90
4908;DHT22;64375;51.540;7.364;2022-10-17T15:39:48;21.40;99.90
4908;DHT22;64375;51.540;7.364;2022-10-17T15:42:20;21.40;99.90
4908;DHT22;64375;51.540;7.364;2022-10-17T15:44:48;21.50;99.90
4908;DHT22;64375;51.540;7.364;2022-10-17T15:47:23;21.50;99.90
4908;DHT22;64375;51.540;7.364;2022-10-17T15:49:52;21.50;99.90
4908;DHT22;64375;51.540;7.364;2022-10-17T15:52:22;21.30;99.90
4908;DHT22;64375;51.540;7.364;2022-10-17T15:54:51;21.20;99.90
4908;DHT22;64375;51.540;7.364;2022-10-17T15:57:22;21.20;99.90
4908;DHT22;64375;51.540;7.364;2022-10-17T15:59:51;21.20;99.90
4908;DHT22;64375;51.540;7.364;2022-10-17T16:02:21;21.30;99.90
4908;DHT22;64375;51.540;7.364;2022-10-17T16:04:50;21.20;99.90
4908;DHT22;64375;51.540;7.364;2022-10-17T16:07:19;21.20;99.90
4908;DHT22;64375;51.540;7.364;2022-10-17T16:09:48;21.20;99.90
4908;DHT22;64375;51.540;7.364;2022-10-17T16:12:18;21.30;99.90
4908;DHT22;64375;51.540;7.364;2022-10-17T16:14:48;21.30;99.90
4908;DHT22;64375;51.540;7.364;2022-10-17T16:17:16;21.20;99.90
4908;DHT22;64375;51.540;7.364;2022-10-17T16:19:44;21.20;99.90
4908;DHT22;64375;51.540;7.364;2022-10-17T16:22:19;21.30;99.90
4908;DHT22;64375;51.540;7.364;2022-10-17T16:24:48;21.30;99.90